createdAt,value
2018-12-29T00:00:55.000Z,489.1
2018-12-29T00:01:57.438Z,489.1
2018-12-29T00:02:59.601Z,489.3
2018-12-29T00:04:01.743Z,489.2
2018-12-29T00:05:03.904Z,489.3
2018-12-29T00:06:06.339Z,488.9
2018-12-29T00:07:08.778Z,488.9
2018-12-29T00:08:10.657Z,488.9
2018-12-29T00:09:12.806Z,488.7
2018-12-29T00:10:15.234Z,488.7
2018-12-29T00:11:16.872Z,488.9
2018-12-29T00:12:19.312Z,488.6
2018-12-29T00:13:21.193Z,488.9
2018-12-29T00:14:23.358Z,488.7
2018-12-29T00:15:25.788Z,488.9
2018-12-29T00:16:27.943Z,488.5
2018-12-29T00:17:30.364Z,488.4
2018-12-29T00:18:32.794Z,488.3
2018-12-29T00:19:34.953Z,488.4
2018-12-29T00:20:36.836Z,487.7
2018-12-29T00:21:38.999Z,487.6
2018-12-29T00:22:41.142Z,487.4
2018-12-29T00:23:43.577Z,487.3
2018-12-29T00:24:45.723Z,487.4
2018-12-29T00:25:47.876Z,487.7
2018-12-29T00:26:50.031Z,487.9
2018-12-29T00:27:52.193Z,487.5
2018-12-29T00:28:54.353Z,487.4
2018-12-29T00:29:56.223Z,487.2
2018-12-29T00:30:58.666Z,487.2
2018-12-29T00:32:01.099Z,487.3
2018-12-29T00:33:03.523Z,487.4
2018-12-29T00:34:05.949Z,486.9
2018-12-29T00:35:08.363Z,487.1
2018-12-29T00:36:10.804Z,487
2018-12-29T00:37:13.229Z,487.2
2018-12-29T00:38:15.653Z,487.4
2018-12-29T00:39:17.794Z,487.3
2018-12-29T00:40:19.973Z,487.4
2018-12-29T00:41:22.133Z,487.6
2018-12-29T00:42:24.573Z,487.3
2018-12-29T00:43:27.009Z,487.3
2018-12-29T00:44:29.143Z,487.2
2018-12-29T00:45:31.580Z,487.5
2018-12-29T00:46:34.013Z,487
2018-12-29T00:47:36.185Z,487.8
2018-12-29T00:48:38.609Z,487.4
2018-12-29T00:49:40.775Z,487.5
2018-12-29T00:50:43.201Z,487.8
2018-12-29T00:51:45.637Z,488
2018-12-29T00:52:48.059Z,488.1
2018-12-29T00:53:50.477Z,488
2018-12-29T00:54:52.905Z,487.6
2018-12-29T00:55:55.083Z,487.4
2018-12-29T00:56:57.220Z,487
2018-12-29T00:57:59.374Z,487.2
2018-12-29T00:59:01.792Z,486.7
2018-12-29T01:00:03.947Z,487.3
2018-12-29T01:01:06.381Z,487.1
2018-12-29T01:02:08.524Z,487
2018-12-29T01:03:10.949Z,486.9
2018-12-29T01:04:13.373Z,487.2
2018-12-29T01:05:15.547Z,486.7
2018-12-29T01:06:17.981Z,486.8
2018-12-29T01:07:20.423Z,486.5
2018-12-29T01:08:22.843Z,486.1
2018-12-29T01:09:25.273Z,486.1
2018-12-29T01:10:27.711Z,485.8
2018-12-29T01:11:30.144Z,486
2018-12-29T01:12:32.559Z,486.1
2018-12-29T01:13:35.000Z,485.6
2018-12-29T01:14:37.430Z,485.4
2018-12-29T01:15:39.849Z,485
2018-12-29T01:16:42.001Z,485.4
2018-12-29T01:17:44.134Z,484.9
2018-12-29T01:18:46.283Z,485
2018-12-29T01:19:48.757Z,485.3
2018-12-29T01:20:50.915Z,485
2018-12-29T01:21:53.093Z,484.9
2018-12-29T01:22:55.524Z,484.8
2018-12-29T01:23:57.953Z,484.3
2018-12-29T01:25:00.165Z,484.1
2018-12-29T01:26:02.599Z,484
2018-12-29T01:27:05.023Z,484.2
2018-12-29T01:28:07.182Z,483.9
2018-12-29T01:29:09.603Z,484.1
2018-12-29T01:30:12.022Z,483.9
2018-12-29T01:31:14.473Z,484
2018-12-29T01:32:16.359Z,483.8
2018-12-29T01:33:18.239Z,484
2018-12-29T01:34:20.119Z,484.5
2018-12-29T01:35:22.552Z,484.2
2018-12-29T01:36:25.045Z,484
2018-12-29T01:37:27.200Z,483.8
2018-12-29T01:38:29.083Z,483.9
2018-12-29T01:39:31.527Z,484
2018-12-29T01:40:33.954Z,484.3
2018-12-29T01:41:36.376Z,484
2018-12-29T01:42:38.802Z,484.1
2018-12-29T01:43:41.234Z,483.8
2018-12-29T01:44:43.385Z,484
2018-12-29T01:45:45.824Z,483.7
2018-12-29T01:46:48.249Z,484.1
2018-12-29T01:47:50.400Z,484.1
2018-12-29T01:48:52.576Z,484.1
2018-12-29T01:49:55.014Z,484
2018-12-29T01:50:57.454Z,484.3
2018-12-29T01:51:59.886Z,484.2
2018-12-29T01:53:02.309Z,484.3
2018-12-29T01:54:04.528Z,484
2018-12-29T01:55:06.958Z,484
2018-12-29T01:56:09.384Z,484.5
2018-12-29T01:57:11.823Z,484.5
2018-12-29T01:58:13.958Z,484.7
2018-12-29T01:59:16.382Z,484.7
2018-12-29T02:00:18.808Z,484.7
2018-12-29T02:01:21.238Z,485.1
2018-12-29T02:02:38.329Z,485
2018-12-29T02:03:40.464Z,485.6
2018-12-29T02:04:42.906Z,485.6
2018-12-29T02:05:45.330Z,486.1
2018-12-29T02:06:47.768Z,486.1
2018-12-29T02:07:49.666Z,486.5
2018-12-29T02:08:51.803Z,486.4
2018-12-29T02:09:53.980Z,487
2018-12-29T02:10:56.161Z,486.6
2018-12-29T02:11:58.295Z,486.8
2018-12-29T02:13:00.428Z,486.5
2018-12-29T02:14:02.596Z,486.5
2018-12-29T02:15:05.021Z,486.4
2018-12-29T02:16:07.155Z,486
2018-12-29T02:17:09.325Z,485.6
2018-12-29T02:18:11.759Z,485.6
2018-12-29T02:19:14.183Z,485.4
2018-12-29T02:20:16.631Z,485.5
2018-12-29T02:21:19.057Z,485.3
2018-12-29T02:22:21.494Z,485.2
2018-12-29T02:23:23.918Z,485.1
2018-12-29T02:24:26.075Z,485.1
2018-12-29T02:25:28.506Z,484.5
2018-12-29T02:26:30.935Z,484.8
2018-12-29T02:27:32.835Z,484.8
2018-12-29T02:28:34.733Z,484.3
2018-12-29T02:29:36.864Z,484.3
2018-12-29T02:30:39.295Z,484.4
2018-12-29T02:31:41.721Z,484.6
2018-12-29T02:32:44.155Z,484.8
2018-12-29T02:33:46.592Z,484.8
2018-12-29T02:34:48.744Z,484.6
2018-12-29T02:35:50.934Z,484.8
2018-12-29T02:36:53.383Z,484.9
2018-12-29T02:37:55.824Z,484.9
2018-12-29T02:38:58.254Z,484.9
2018-12-29T02:40:00.417Z,485
2018-12-29T02:41:02.585Z,485.1
2018-12-29T02:42:05.014Z,485.1
2018-12-29T02:43:07.502Z,484.7
2018-12-29T02:44:09.932Z,484.8
2018-12-29T02:45:12.361Z,484.6
2018-12-29T02:46:14.790Z,485.3
2018-12-29T02:47:17.220Z,485.1
2018-12-29T02:48:19.642Z,484.8
2018-12-29T02:49:21.872Z,484.9
2018-12-29T02:50:24.306Z,485
2018-12-29T02:51:26.458Z,485.4
2018-12-29T02:52:28.888Z,485
2018-12-29T02:53:31.329Z,485.3
2018-12-29T02:54:33.772Z,485.2
2018-12-29T02:55:36.202Z,484.9
2018-12-29T02:56:38.364Z,485.2
2018-12-29T02:57:40.799Z,484.9
2018-12-29T02:58:43.233Z,484.6
2018-12-29T02:59:45.371Z,484.3
2018-12-29T03:00:47.811Z,484.2
2018-12-29T03:01:49.676Z,484.3
2018-12-29T03:02:51.830Z,483.7
2018-12-29T03:03:54.263Z,483.7
2018-12-29T03:04:56.702Z,483.3
2018-12-29T03:05:58.875Z,483.2
2018-12-29T03:07:01.306Z,483.4
2018-12-29T03:08:03.734Z,483.2
2018-12-29T03:09:06.177Z,483.4
2018-12-29T03:10:08.590Z,483.5
2018-12-29T03:11:10.731Z,483.3
2018-12-29T03:12:12.902Z,483.3
2018-12-29T03:13:15.332Z,483.8
2018-12-29T03:14:17.552Z,483.6
2018-12-29T03:15:19.440Z,483.9
2018-12-29T03:16:21.596Z,483.6
2018-12-29T03:17:24.029Z,483.6
2018-12-29T03:18:26.202Z,483.9
2018-12-29T03:19:28.634Z,483.8
2018-12-29T03:20:31.058Z,483.4
2018-12-29T03:21:33.478Z,483.6
2018-12-29T03:22:35.957Z,483.9
2018-12-29T03:23:38.412Z,483.3
2018-12-29T03:24:40.841Z,483.2
2018-12-29T03:25:42.715Z,483.2
2018-12-29T03:26:45.158Z,483.1
2018-12-29T03:27:47.037Z,483.2
2018-12-29T03:28:49.474Z,484
2018-12-29T03:29:51.619Z,484.5
2018-12-29T03:30:54.054Z,484.8
2018-12-29T03:31:56.216Z,484.9
2018-12-29T03:32:58.516Z,485.5
2018-12-29T03:34:00.654Z,485.5
2018-12-29T03:35:02.867Z,486
2018-12-29T03:36:05.312Z,486.1
2018-12-29T03:37:07.751Z,486.1
2018-12-29T03:38:10.174Z,486.4
2018-12-29T03:39:12.048Z,486.1
2018-12-29T03:40:14.473Z,486.2
2018-12-29T03:41:16.909Z,486
2018-12-29T03:42:19.081Z,486.4
2018-12-29T03:43:21.248Z,486.3
2018-12-29T03:44:23.683Z,486.2
2018-12-29T03:45:26.099Z,486.6
2018-12-29T03:46:28.533Z,486.8
2018-12-29T03:47:30.951Z,486.9
2018-12-29T03:48:33.097Z,486.7
2018-12-29T03:49:35.532Z,486.6
2018-12-29T03:50:37.412Z,487.1
2018-12-29T03:51:39.834Z,487.2
2018-12-29T03:52:42.272Z,487.7
2018-12-29T03:53:44.715Z,488.3
2018-12-29T03:54:46.866Z,488
2018-12-29T03:55:49.038Z,487.7
2018-12-29T03:56:51.463Z,488
2018-12-29T03:57:53.625Z,488
2018-12-29T03:58:56.111Z,488.1
2018-12-29T03:59:58.525Z,488
2018-12-29T04:01:00.950Z,487.6
2018-12-29T04:02:03.406Z,486.8
2018-12-29T04:03:05.009Z,487.2
2018-12-29T04:04:07.441Z,487.4
2018-12-29T04:05:09.865Z,487.5
2018-12-29T04:06:12.289Z,487.7
2018-12-29T04:07:14.445Z,487.2
2018-12-29T04:08:16.884Z,486.5
2018-12-29T04:09:19.338Z,485.9
2018-12-29T04:10:21.495Z,485.8
2018-12-29T04:11:23.634Z,486.2
2018-12-29T04:12:26.055Z,486.2
2018-12-29T04:13:28.532Z,486.9
2018-12-29T04:14:30.687Z,486.6
2018-12-29T04:15:33.126Z,486.8
2018-12-29T04:16:35.304Z,486.9
2018-12-29T04:17:37.751Z,486.8
2018-12-29T04:18:39.901Z,488
2018-12-29T04:19:42.325Z,488.1
2018-12-29T04:20:44.750Z,487.9
2018-12-29T04:21:46.894Z,488
2018-12-29T04:22:49.055Z,487.3
2018-12-29T04:23:51.496Z,487.3
2018-12-29T04:24:53.933Z,487
2018-12-29T04:25:56.359Z,486.8
2018-12-29T04:26:58.873Z,487
2018-12-29T04:28:00.760Z,486.3
2018-12-29T04:29:03.183Z,486.6
2018-12-29T04:30:05.609Z,486.3
2018-12-29T04:31:08.044Z,486.3
2018-12-29T04:32:10.185Z,486.5
2018-12-29T04:33:12.624Z,486.4
2018-12-29T04:34:14.211Z,486.4
2018-12-29T04:35:16.642Z,486.4
2018-12-29T04:36:19.087Z,486.5
2018-12-29T04:37:21.213Z,486.5
2018-12-29T04:38:23.091Z,486.7
2018-12-29T04:39:24.939Z,486.9
2018-12-29T04:40:27.365Z,486.6
2018-12-29T04:41:29.533Z,486
2018-12-29T04:42:31.967Z,485.5
2018-12-29T04:43:34.395Z,485.1
2018-12-29T04:44:36.276Z,485.3
2018-12-29T04:45:38.435Z,485.6
2018-12-29T04:46:40.927Z,486
2018-12-29T04:47:43.365Z,485.8
2018-12-29T04:48:45.784Z,485.4
2018-12-29T04:49:48.212Z,485.3
2018-12-29T04:50:50.630Z,484.7
2018-12-29T04:51:52.791Z,485.2
2018-12-29T04:52:55.235Z,485.2
2018-12-29T04:53:57.727Z,484.8
2018-12-29T04:55:00.169Z,484.8
2018-12-29T04:56:02.601Z,485.1
2018-12-29T04:57:05.029Z,485.1
2018-12-29T04:58:06.896Z,485.6
2018-12-29T04:59:09.331Z,485.9
2018-12-29T05:00:11.484Z,485.5
2018-12-29T05:01:13.631Z,485.5
2018-12-29T05:02:16.052Z,484.9
2018-12-29T05:03:18.194Z,484.5
2018-12-29T05:04:20.615Z,484.3
2018-12-29T05:05:23.052Z,484.2
2018-12-29T05:06:25.476Z,484.1
2018-12-29T05:07:27.909Z,483.4
2018-12-29T05:08:30.084Z,483
2018-12-29T05:09:32.514Z,482.8
2018-12-29T05:10:34.699Z,482.9
2018-12-29T05:11:37.144Z,483
2018-12-29T05:12:39.300Z,482.7
2018-12-29T05:13:41.475Z,482.2
2018-12-29T05:14:43.903Z,482.1
2018-12-29T05:15:46.326Z,482.2
2018-12-29T05:16:48.204Z,482
2018-12-29T05:17:50.639Z,482.1
2018-12-29T05:18:52.267Z,482
2018-12-29T05:19:54.681Z,481.7
2018-12-29T05:20:56.831Z,481.4
2018-12-29T05:21:59.257Z,481
2018-12-29T05:23:00.867Z,480.8
2018-12-29T05:24:02.757Z,479.9
2018-12-29T05:25:04.939Z,479.7
2018-12-29T05:26:07.369Z,479.1
2018-12-29T05:27:09.804Z,479.7
2018-12-29T05:28:11.704Z,479.3
2018-12-29T05:29:13.584Z,478.6
2018-12-29T05:30:15.755Z,478.6
2018-12-29T05:31:17.885Z,478.7
2018-12-29T05:32:20.315Z,478.6
2018-12-29T05:33:22.732Z,478.9
2018-12-29T05:34:24.644Z,479.4
2018-12-29T05:35:26.811Z,479.2
2018-12-29T05:36:29.231Z,479.1
2018-12-29T05:37:31.685Z,478.7
2018-12-29T05:38:33.846Z,479.2
2018-12-29T05:39:35.724Z,479.7
2018-12-29T05:40:37.864Z,480.3
2018-12-29T05:41:40.296Z,480
2018-12-29T05:42:42.724Z,480.2
2018-12-29T05:43:44.874Z,479.3
2018-12-29T05:44:47.295Z,479.7
2018-12-29T05:45:49.468Z,480
2018-12-29T05:46:51.943Z,480.5
2018-12-29T05:47:54.374Z,480.2
2018-12-29T05:48:56.804Z,480.1
2018-12-29T05:49:59.244Z,480.4
2018-12-29T05:51:01.684Z,481.5
2018-12-29T05:52:03.911Z,481.5
2018-12-29T05:53:06.106Z,481.4
2018-12-29T05:54:08.260Z,480.7
2018-12-29T05:55:10.410Z,480.3
2018-12-29T05:56:12.853Z,479.5
2018-12-29T05:57:14.993Z,479.8
2018-12-29T05:58:17.128Z,479.7
2018-12-29T05:59:19.542Z,479.3
2018-12-29T06:00:21.982Z,479
2018-12-29T06:01:24.420Z,478.9
2018-12-29T06:02:26.558Z,478.6
2018-12-29T06:03:28.727Z,479
2018-12-29T06:04:31.153Z,479.1
2018-12-29T06:05:33.580Z,478.6
2018-12-29T06:06:36.025Z,478.5
2018-12-29T06:07:38.194Z,478.3
2018-12-29T06:08:40.610Z,478.3
2018-12-29T06:09:43.040Z,477.7
2018-12-29T06:10:45.462Z,477.3
2018-12-29T06:11:47.614Z,477.3
2018-12-29T06:12:50.037Z,477.2
2018-12-29T06:13:52.196Z,476.9
2018-12-29T06:14:54.331Z,476.5
2018-12-29T06:15:56.492Z,476.4
2018-12-29T06:16:58.926Z,476.9
2018-12-29T06:18:01.381Z,477
2018-12-29T06:19:03.533Z,477
2018-12-29T06:20:05.964Z,477.4
2018-12-29T06:21:08.142Z,477
2018-12-29T06:22:10.582Z,477.3
2018-12-29T06:23:13.016Z,477.6
2018-12-29T06:24:15.442Z,477.9
2018-12-29T06:25:17.959Z,478
2018-12-29T06:26:20.383Z,477.7
2018-12-29T06:27:22.818Z,478.4
2018-12-29T06:28:24.974Z,478.7
2018-12-29T06:29:27.392Z,479
2018-12-29T06:30:29.569Z,478.8
2018-12-29T06:31:31.994Z,478.5
2018-12-29T06:32:34.435Z,478.3
2018-12-29T06:33:36.865Z,478.1
2018-12-29T06:34:39.296Z,478.5
2018-12-29T06:35:41.464Z,478.7
2018-12-29T06:36:43.896Z,478.5
2018-12-29T06:37:46.324Z,478.4
2018-12-29T06:38:48.504Z,478.8
2018-12-29T06:39:50.941Z,478.6
2018-12-29T06:40:53.372Z,478.4
2018-12-29T06:41:55.804Z,477.8
2018-12-29T06:42:58.219Z,477.5
2018-12-29T06:44:00.087Z,477
2018-12-29T06:45:02.253Z,477.2
2018-12-29T06:46:04.422Z,477.3
2018-12-29T06:47:06.868Z,477.9
2018-12-29T06:48:08.755Z,477.9
2018-12-29T06:49:11.189Z,478.1
2018-12-29T06:50:13.626Z,477.9
2018-12-29T06:51:15.778Z,477.5
2018-12-29T06:52:17.934Z,477.4
2018-12-29T06:53:20.359Z,477.3
2018-12-29T06:54:22.784Z,476.8
2018-12-29T06:55:24.940Z,477.3
2018-12-29T06:56:27.112Z,477.5
2018-12-29T06:57:29.277Z,477.7
2018-12-29T06:58:31.414Z,477.4
2018-12-29T06:59:33.841Z,477
2018-12-29T07:00:36.272Z,477.1
2018-12-29T07:01:38.484Z,476.9
2018-12-29T07:02:40.904Z,476.8
2018-12-29T07:03:42.777Z,476.8
2018-12-29T07:04:45.200Z,476.8
2018-12-29T07:05:47.627Z,476.3
2018-12-29T07:06:50.074Z,476.7
2018-12-29T07:07:52.505Z,476.8
2018-12-29T07:08:54.664Z,476.9
2018-12-29T07:09:57.084Z,476.8
2018-12-29T07:10:59.223Z,476.6
2018-12-29T07:12:01.716Z,476.4
2018-12-29T07:13:04.151Z,476.1
2018-12-29T07:14:06.304Z,476.2
2018-12-29T07:15:08.738Z,475.8
2018-12-29T07:16:11.162Z,475.8
2018-12-29T07:17:13.595Z,475.7
2018-12-29T07:18:16.024Z,475.7
2018-12-29T07:19:18.478Z,475.7
2018-12-29T07:20:20.912Z,475.5
2018-12-29T07:21:23.344Z,475.6
2018-12-29T07:22:25.809Z,475.8
2018-12-29T07:23:27.984Z,475.3
2018-12-29T07:24:30.119Z,474.6
2018-12-29T07:25:32.555Z,474.8
2018-12-29T07:26:35.014Z,474.5
2018-12-29T07:27:37.450Z,475
2018-12-29T07:28:39.878Z,474.9
2018-12-29T07:29:42.312Z,474.8
2018-12-29T07:30:44.748Z,474.6
2018-12-29T07:31:47.304Z,474.6
2018-12-29T07:32:49.176Z,474.4
2018-12-29T07:33:51.616Z,474.3
2018-12-29T07:34:54.060Z,474.1
2018-12-29T07:35:56.214Z,473.7
2018-12-29T07:36:58.630Z,473.9
2018-12-29T07:38:01.058Z,473.6
2018-12-29T07:39:03.487Z,473.6
2018-12-29T07:40:05.934Z,473.7
2018-12-29T07:41:08.104Z,473.9
2018-12-29T07:42:10.266Z,473.9
2018-12-29T07:43:12.680Z,473.7
2018-12-29T07:44:15.108Z,473.5
2018-12-29T07:45:17.538Z,473.8
2018-12-29T07:46:19.697Z,474.3
2018-12-29T07:47:22.120Z,474
2018-12-29T07:48:24.306Z,474.2
2018-12-29T07:49:26.450Z,473.7
2018-12-29T07:50:28.904Z,473.6
2018-12-29T07:51:31.325Z,473.8
2018-12-29T07:52:33.754Z,473.5
2018-12-29T07:53:35.913Z,473.9
2018-12-29T07:54:38.153Z,473.3
2018-12-29T07:55:40.288Z,473.4
2018-12-29T07:56:42.739Z,473.3
2018-12-29T07:57:45.167Z,473
2018-12-29T07:58:47.588Z,472.7
2018-12-29T07:59:50.046Z,473
2018-12-29T08:00:52.487Z,473
2018-12-29T08:01:54.914Z,472.5
2018-12-29T08:02:57.076Z,472.3
2018-12-29T08:03:59.510Z,471.8
2018-12-29T08:05:01.690Z,471.4
2018-12-29T08:06:03.871Z,471.5
2018-12-29T08:07:06.032Z,471.5
2018-12-29T08:08:08.209Z,471
2018-12-29T08:09:10.386Z,471.1
2018-12-29T08:10:12.883Z,471.2
2018-12-29T08:11:15.364Z,471.5
2018-12-29T08:12:17.805Z,471.3
2018-12-29T08:13:20.234Z,470.8
2018-12-29T08:14:22.404Z,471.3
2018-12-29T08:15:24.833Z,471.1
2018-12-29T08:16:27.001Z,470.9
2018-12-29T08:17:29.184Z,470.9
2018-12-29T08:18:31.623Z,470.4
2018-12-29T08:19:33.783Z,470.5
2018-12-29T08:20:36.244Z,470.2
2018-12-29T08:21:38.132Z,470.3
2018-12-29T08:22:40.572Z,470.3
2018-12-29T08:23:43.020Z,470.3
2018-12-29T08:24:45.470Z,470.8
2018-12-29T08:25:47.636Z,471.1
2018-12-29T08:26:49.514Z,470.7
2018-12-29T08:27:51.951Z,470.3
2018-12-29T08:28:54.127Z,470.3
2018-12-29T08:29:56.573Z,470.7
2018-12-29T08:30:59.034Z,470.2
2018-12-29T08:32:01.194Z,470.2
2018-12-29T08:33:03.626Z,470.1
2018-12-29T08:34:07.555Z,470.3
2018-12-29T08:35:09.997Z,470
2018-12-29T08:36:12.457Z,470.5
2018-12-29T08:37:15.192Z,470.6
2018-12-29T08:38:17.692Z,470.7
2018-12-29T08:39:19.853Z,470.5
2018-12-29T08:40:22.312Z,470.6
2018-12-29T08:41:24.526Z,470.8
2018-12-29T08:42:26.404Z,471.4
2018-12-29T08:43:28.843Z,470.8
2018-12-29T08:44:31.010Z,471.1
2018-12-29T08:45:32.903Z,471.4
2018-12-29T08:46:35.333Z,471
2018-12-29T08:47:37.481Z,470.9
2018-12-29T08:48:39.357Z,471
2018-12-29T08:49:43.022Z,470.8
2018-12-29T08:50:44.926Z,471.2
2018-12-29T08:51:46.815Z,470.8
2018-12-29T08:52:49.264Z,470.7
2018-12-29T08:53:51.696Z,470.3
2018-12-29T08:54:54.128Z,470.2
2018-12-29T08:55:56.278Z,469.7
2018-12-29T08:56:57.880Z,469.8
2018-12-29T08:58:00.316Z,469.7
2018-12-29T08:59:02.450Z,470
2018-12-29T09:00:04.904Z,470
2018-12-29T09:01:07.332Z,470.1
2018-12-29T09:02:09.517Z,470
2018-12-29T09:03:11.667Z,470.3
2018-12-29T09:04:14.124Z,470.8
2018-12-29T09:05:16.006Z,470
2018-12-29T09:06:17.891Z,470.3
2018-12-29T09:07:19.787Z,470.1
2018-12-29T09:08:22.219Z,469.8
2018-12-29T09:09:24.648Z,469.9
2018-12-29T09:10:27.091Z,469.6
2018-12-29T09:11:28.996Z,469.3
2018-12-29T09:12:30.598Z,468.9
2018-12-29T09:13:32.790Z,468.9
2018-12-29T09:14:34.956Z,468.7
2018-12-29T09:15:36.847Z,468.9
2018-12-29T09:16:39.316Z,468.7
2018-12-29T09:17:41.488Z,468.9
2018-12-29T09:19:48.924Z,469.4
2018-12-29T09:20:51.087Z,469
2018-12-29T09:21:53.515Z,468.9
2018-12-29T09:22:55.987Z,468.6
2018-12-29T09:23:58.152Z,468.3
2018-12-29T09:25:00.735Z,468.4
2018-12-29T09:26:04.698Z,468.1
2018-12-29T09:27:06.642Z,467.9
2018-12-29T09:28:09.075Z,468.1
2018-12-29T09:29:11.235Z,468
2018-12-29T09:30:13.678Z,468
2018-12-29T09:31:16.116Z,467.9
2018-12-29T09:32:18.297Z,468
2018-12-29T09:33:20.734Z,467.7
2018-12-29T09:34:24.517Z,467.6
2018-12-29T09:35:26.677Z,467.5
2018-12-29T09:36:29.108Z,467.9
2018-12-29T09:37:31.261Z,467.9
2018-12-29T09:38:33.697Z,468
2018-12-29T09:39:36.135Z,467.9
2018-12-29T09:40:38.569Z,468.1
2018-12-29T09:41:41.014Z,468.3
2018-12-29T09:42:43.441Z,468.2
2018-12-29T09:43:45.599Z,468.2
2018-12-29T09:44:47.755Z,468.1
2018-12-29T09:45:49.905Z,468.4
2018-12-29T09:46:52.067Z,468.2
2018-12-29T09:47:54.497Z,468.5
2018-12-29T09:48:56.649Z,468.3
2018-12-29T09:49:59.080Z,468.7
2018-12-29T09:51:01.208Z,469
2018-12-29T09:52:03.641Z,468.4
2018-12-29T09:53:06.138Z,468.4
2018-12-29T09:54:08.294Z,468.1
2018-12-29T09:55:09.901Z,468.5
2018-12-29T09:56:12.057Z,468.7
2018-12-29T09:57:14.212Z,468.6
2018-12-29T09:58:16.650Z,468.8
2018-12-29T09:59:18.813Z,468.9
2018-12-29T10:00:20.973Z,468.7
2018-12-29T10:01:23.417Z,468.4
2018-12-29T10:02:25.849Z,468.6
2018-12-29T10:03:27.989Z,468.5
2018-12-29T10:04:30.411Z,468.6
2018-12-29T10:05:32.275Z,468.4
2018-12-29T10:06:34.710Z,468.4
2018-12-29T10:07:37.144Z,468.7
2018-12-29T10:08:39.584Z,468.7
2018-12-29T10:09:42.013Z,468.4
2018-12-29T10:10:44.436Z,468
2018-12-29T10:11:46.875Z,468.2
2018-12-29T10:12:49.293Z,468
2018-12-29T10:13:51.175Z,468
2018-12-29T10:14:53.369Z,468.1
2018-12-29T10:15:55.500Z,468.1
2018-12-29T10:16:57.947Z,468.4
2018-12-29T10:18:00.394Z,468.2
2018-12-29T10:19:02.572Z,468.1
2018-12-29T10:20:04.712Z,468.2
2018-12-29T10:21:07.152Z,468.1
2018-12-29T10:22:09.588Z,467.8
2018-12-29T10:23:12.019Z,467.6
2018-12-29T10:24:14.452Z,467.6
2018-12-29T10:26:00.859Z,467.5
2018-12-29T10:27:03.036Z,467.2
2018-12-29T10:28:05.475Z,467.2
2018-12-29T10:29:07.909Z,467.2
2018-12-29T10:30:10.338Z,467.3
2018-12-29T10:31:12.770Z,467.7
2018-12-29T10:32:15.198Z,467.8
2018-12-29T10:33:17.629Z,467.8
2018-12-29T10:34:20.054Z,468
2018-12-29T10:35:22.479Z,467.9
2018-12-29T10:36:25.003Z,467.9
2018-12-29T10:37:27.412Z,468.3
2018-12-29T10:38:29.585Z,468.2
2018-12-29T10:39:32.025Z,468
2018-12-29T10:40:33.913Z,467.8
2018-12-29T10:41:36.382Z,467.9
2018-12-29T10:42:38.264Z,467.7
2018-12-29T10:43:40.152Z,467.3
2018-12-29T10:44:42.588Z,468
2018-12-29T10:45:44.761Z,467.5
2018-12-29T10:46:47.193Z,467.3
2018-12-29T10:47:49.628Z,466.8
2018-12-29T10:48:52.067Z,467.7
2018-12-29T10:49:54.234Z,467.4
2018-12-29T10:50:56.659Z,467.1
2018-12-29T10:51:58.849Z,467.4
2018-12-29T10:53:01.283Z,467.3
2018-12-29T10:54:03.434Z,467.5
2018-12-29T10:55:05.872Z,467.4
2018-12-29T10:56:08.304Z,467.6
2018-12-29T10:57:10.443Z,468.3
2018-12-29T10:58:12.604Z,468.3
2018-12-29T10:59:14.757Z,468.4
2018-12-29T11:00:16.911Z,468.3
2018-12-29T11:01:19.357Z,468.8
2018-12-29T11:02:21.827Z,468.2
2018-12-29T11:03:23.977Z,468.2
2018-12-29T11:04:26.423Z,467.7
2018-12-29T11:05:28.029Z,467.9
2018-12-29T11:06:30.188Z,467.3
2018-12-29T11:07:32.368Z,467.5
2018-12-29T11:08:34.693Z,467.3
2018-12-29T11:09:37.136Z,467.3
2018-12-29T11:10:39.017Z,467.6
2018-12-29T11:11:41.473Z,467.6
2018-12-29T11:12:43.909Z,467.8
2018-12-29T11:13:46.075Z,467.8
2018-12-29T11:14:48.236Z,468
2018-12-29T11:15:50.372Z,468.3
2018-12-29T11:16:52.815Z,468
2018-12-29T11:17:55.236Z,468
2018-12-29T11:18:57.671Z,468.4
2018-12-29T11:19:59.568Z,468.4
2018-12-29T11:21:03.514Z,468.6
2018-12-29T11:22:05.651Z,468.5
2018-12-29T11:23:07.783Z,468.6
2018-12-29T11:24:10.223Z,468.5
2018-12-29T11:25:12.390Z,468.5
2018-12-29T11:26:14.565Z,468.4
2018-12-29T11:27:16.729Z,468.3
2018-12-29T11:28:19.159Z,468.4
2018-12-29T11:29:21.336Z,468.7
2018-12-29T11:30:23.224Z,469
2018-12-29T11:31:25.363Z,468.9
2018-12-29T11:32:27.244Z,468.8
2018-12-29T11:33:29.417Z,468.7
2018-12-29T11:34:31.849Z,468.6
2018-12-29T11:35:34.025Z,468.9
2018-12-29T11:36:36.447Z,469
2018-12-29T11:37:38.591Z,469.3
2018-12-29T11:38:40.730Z,469.5
2018-12-29T11:39:42.665Z,469.7
2018-12-29T11:40:44.811Z,470
2018-12-29T11:41:47.349Z,469.8
2018-12-29T11:42:49.529Z,470.2
2018-12-29T11:43:51.941Z,470.9
2018-12-29T11:44:54.378Z,470.5
2018-12-29T11:45:56.815Z,470.4
2018-12-29T11:46:58.687Z,471
2018-12-29T11:48:01.109Z,470.5
2018-12-29T11:49:03.996Z,470.8
2018-12-29T11:50:06.417Z,470.7
2018-12-29T11:51:08.951Z,470.6
2018-12-29T11:52:12.233Z,470.6
2018-12-29T11:53:14.747Z,471.2
2018-12-29T11:54:17.205Z,470.9
2018-12-29T11:55:19.377Z,471
2018-12-29T11:56:21.542Z,471.1
2018-12-29T11:57:23.979Z,471
2018-12-29T11:58:26.122Z,471
2018-12-29T11:59:28.263Z,470.9
2018-12-29T12:00:30.417Z,471.1
2018-12-29T12:01:32.875Z,471.7
2018-12-29T12:02:34.763Z,471.5
2018-12-29T12:03:37.195Z,471.5
2018-12-29T12:04:39.386Z,471.5
2018-12-29T12:05:42.357Z,471.8
2018-12-29T12:06:45.804Z,472
2018-12-29T12:07:48.183Z,471.5
2018-12-29T12:08:50.616Z,471.8
2018-12-29T12:09:52.837Z,472
2018-12-29T12:10:54.983Z,472.5
2018-12-29T12:11:56.883Z,472.6
2018-12-29T12:12:59.313Z,472.4
2018-12-29T12:14:01.473Z,472.3
2018-12-29T12:15:03.921Z,472.3
2018-12-29T12:16:05.804Z,472.2
2018-12-29T12:17:08.240Z,472.4
2018-12-29T12:18:10.447Z,472.6
2018-12-29T12:19:13.010Z,472.6
2018-12-29T12:20:16.427Z,472.7
2018-12-29T12:21:19.225Z,472.5
2018-12-29T12:22:21.441Z,472.8
2018-12-29T12:23:23.880Z,473
2018-12-29T12:24:26.041Z,473
2018-12-29T12:25:29.130Z,473.3
2018-12-29T12:26:31.953Z,472.8
2018-12-29T12:27:35.128Z,473.3
2018-12-29T12:28:37.306Z,472.9
2018-12-29T12:29:39.491Z,472.9
2018-12-29T12:30:42.685Z,473.6
2018-12-29T12:31:45.380Z,473.4
2018-12-29T12:32:47.815Z,473.4
2018-12-29T12:33:50.253Z,473.4
2018-12-29T12:34:52.432Z,473.2
2018-12-29T12:35:54.942Z,473.7
2018-12-29T12:36:57.129Z,473.6
2018-12-29T12:37:59.601Z,474.1
2018-12-29T12:39:03.239Z,473.9
2018-12-29T12:40:05.782Z,474.4
2018-12-29T12:41:08.225Z,474.4
2018-12-29T12:42:10.427Z,474.7
2018-12-29T12:43:13.803Z,474.5
2018-12-29T12:44:16.884Z,475.5
2018-12-29T12:45:19.147Z,475.1
2018-12-29T12:46:22.685Z,475.1
2018-12-29T12:47:25.238Z,475.3
2018-12-29T12:48:27.762Z,475.3
2018-12-29T12:49:30.238Z,475.3
2018-12-29T12:50:32.133Z,475.7
2018-12-29T12:51:34.581Z,475.5
2018-12-29T12:52:37.030Z,475.6
2018-12-29T12:53:39.514Z,475.9
2018-12-29T12:54:43.212Z,475.6
2018-12-29T12:55:46.751Z,475.8
2018-12-29T12:56:50.519Z,475.5
2018-12-29T12:57:54.262Z,475.8
2018-12-29T12:58:58.269Z,475.7
2018-12-29T13:00:01.961Z,475.7
2018-12-29T13:01:05.760Z,476.1
2018-12-29T13:02:07.629Z,475.9
2018-12-29T13:03:10.123Z,476.5
2018-12-29T13:04:12.270Z,476.2
2018-12-29T13:05:14.411Z,476.5
2018-12-29T13:06:16.593Z,476.8
2018-12-29T13:07:18.768Z,476.5
2018-12-29T13:08:20.915Z,476.4
2018-12-29T13:09:23.071Z,476.7
2018-12-29T13:10:25.509Z,476.5
2018-12-29T13:11:27.957Z,476.1
2018-12-29T13:12:30.403Z,476.1
2018-12-29T13:13:33.085Z,476.2
2018-12-29T13:14:36.622Z,476.2
2018-12-29T13:15:38.861Z,476.3
2018-12-29T13:16:41.306Z,476.2
2018-12-29T13:17:43.791Z,476.4
2018-12-29T13:18:46.025Z,476
2018-12-29T13:19:48.483Z,475.9
2018-12-29T13:20:50.648Z,475.8
2018-12-29T13:21:52.547Z,475.7
2018-12-29T13:22:54.979Z,475.6
2018-12-29T13:23:57.433Z,475.3
2018-12-29T13:24:59.853Z,475.3
2018-12-29T13:26:02.033Z,475.3
2018-12-29T13:27:04.463Z,475.6
2018-12-29T13:28:07.419Z,475.4
2018-12-29T13:29:10.175Z,474.9
2018-12-29T13:30:12.621Z,474.9
2018-12-29T13:31:14.791Z,475.1